Time;durP1;ratioP1;P1;durP2;ratioP2;P2;SDS_P1;SDS_P2;PMS_P1;PMS_P2;Temp;Humidity;BMP_temperature;BMP_pressure;BME280_temperature;BME280_humidity;BME280_pressure;Samples;Min_cycle;Max_cycle;Signal;HPM_P1;HPM_P2
2021/04/17 00:00:37;;;;;;;4.60;2.90;;;;;;;;;;5120566;28;20287;-75
2021/04/17 00:03:04;;;;;;;4.47;3.33;;;;;;;;;;5120462;28;20208;-75
2021/04/17 00:05:31;;;;;;;3.00;2.80;;;;;;;;;;5120393;28;20225;-75
2021/04/17 00:07:58;;;;;;;3.10;2.80;;;;;;;;;;5120368;28;20232;-75
2021/04/17 00:10:25;;;;;;;3.60;3.30;;;;;;;;;;5120585;28;20374;-75
2021/04/17 00:12:53;;;;;;;3.67;3.20;;;;;;;;;;5120187;28;20228;-75
2021/04/17 00:15:20;;;;;;;4.03;2.90;;;;;;;;;;5120227;28;20260;-76
2021/04/17 00:17:47;;;;;;;3.20;3.00;;;;;;;;;;5120042;28;20236;-74
2021/04/17 00:20:15;;;;;;;3.20;2.90;;;;;;;;;;5119843;28;20201;-75
2021/04/17 00:22:42;;;;;;;4.63;3.27;;;;;;;;;;5115493;28;20268;-75
2021/04/17 00:25:09;;;;;;;4.80;3.30;;;;;;;;;;5119707;28;20625;-75
2021/04/17 00:27:36;;;;;;;6.27;3.70;;;;;;;;;;5120052;28;20232;-74
2021/04/17 00:30:04;;;;;;;4.53;3.00;;;;;;;;;;5119735;28;20801;-75
2021/04/17 00:32:32;;;;;;;4.30;3.63;;;;;;;;;;5119734;28;20204;-75
2021/04/17 00:35:00;;;;;;;4.73;3.60;;;;;;;;;;5119370;28;20229;-75
2021/04/17 00:37:27;;;;;;;5.53;3.57;;;;;;;;;;5119887;28;20292;-75
2021/04/17 00:39:54;;;;;;;9.63;3.37;;;;;;;;;;5118660;28;20296;-75
2021/04/17 00:42:21;;;;;;;4.20;3.60;;;;;;;;;;5119855;27;20295;-75
2021/04/17 00:44:48;;;;;;;5.13;3.27;;;;;;;;;;5119591;28;20237;-75
2021/04/17 00:47:16;;;;;;;4.67;3.60;;;;;;;;;;5119355;28;20296;-73
2021/04/17 00:49:59;;;;;;;6.07;3.30;;;;;;;;;;5119352;28;20209;-74
2021/04/17 00:52:26;;;;;;;4.50;3.53;;;;;;;;;;5119300;28;20608;-75
2021/04/17 00:54:53;;;;;;;5.07;3.40;;;;;;;;;;5119129;27;20585;-74
2021/04/17 00:57:20;;;;;;;3.67;2.90;;;;;;;;;;5119444;28;20266;-74
2021/04/17 00:59:47;;;;;;;4.23;3.60;;;;;;;;;;5119498;28;20215;-75
2021/04/17 01:02:16;;;;;;;3.57;3.13;;;;;;;;;;5119284;27;20671;-75
2021/04/17 01:04:44;;;;;;;5.33;3.73;;;;;;;;;;5119110;28;20224;-75
2021/04/17 01:07:15;;;;;;;3.43;2.97;;;;;;;;;;5118980;28;20291;-75
2021/04/17 01:09:45;;;;;;;3.87;3.07;;;;;;;;;;5118962;28;20564;-75
2021/04/17 01:12:13;;;;;;;3.57;3.27;;;;;;;;;;5118732;28;20201;-75
2021/04/17 01:14:41;;;;;;;3.83;3.47;;;;;;;;;;5119130;28;20256;-74
2021/04/17 01:17:10;;;;;;;3.70;3.40;;;;;;;;;;5118761;28;20587;-74
2021/04/17 01:19:49;;;;;;;3.50;3.10;;;;;;;;;;5118574;28;20205;-72
2021/04/17 01:22:17;;;;;;;4.03;3.50;;;;;;;;;;5114367;28;20641;-73
2021/04/17 01:24:45;;;;;;;4.77;3.57;;;;;;;;;;5118743;28;20328;-74
2021/04/17 01:27:13;;;;;;;6.47;3.47;;;;;;;;;;5118585;28;20263;-75
2021/04/17 01:29:41;;;;;;;5.83;3.33;;;;;;;;;;5118895;28;20315;-74
2021/04/17 01:32:08;;;;;;;4.07;3.10;;;;;;;;;;5118884;28;20268;-75
2021/04/17 01:34:36;;;;;;;3.87;3.40;;;;;;;;;;5118192;28;20778;-75
2021/04/17 01:37:03;;;;;;;5.17;3.90;;;;;;;;;;5118715;28;20201;-75
2021/04/17 01:39:31;;;;;;;4.47;4.07;;;;;;;;;;5118442;28;20232;-75
2021/04/17 01:41:59;;;;;;;3.53;3.23;;;;;;;;;;5118335;28;20296;-75
2021/04/17 01:44:28;;;;;;;5.60;3.60;;;;;;;;;;5118574;28;20252;-75
2021/04/17 01:46:59;;;;;;;4.83;3.77;;;;;;;;;;5118518;28;20200;-74
2021/04/17 01:49:27;;;;;;;3.83;3.43;;;;;;;;;;5118174;28;20234;-75
2021/04/17 01:51:55;;;;;;;4.00;3.60;;;;;;;;;;5118263;28;20209;-75
2021/04/17 01:54:23;;;;;;;5.10;4.10;;;;;;;;;;5118327;28;20297;-75
2021/04/17 01:56:50;;;;;;;5.80;3.97;;;;;;;;;;5118437;28;20211;-74
2021/04/17 01:59:20;;;;;;;3.70;3.40;;;;;;;;;;5118167;28;20201;-75
2021/04/17 02:01:48;;;;;;;3.93;3.53;;;;;;;;;;5118187;28;20313;-75
2021/04/17 02:04:16;;;;;;;4.23;3.83;;;;;;;;;;5112331;28;20204;-75
2021/04/17 02:06:43;;;;;;;3.60;3.30;;;;;;;;;;5103140;28;20609;-76
2021/04/17 02:09:10;;;;;;;5.23;4.03;;;;;;;;;;5127487;27;20323;-75
2021/04/17 02:11:37;;;;;;;4.10;3.70;;;;;;;;;;5120706;27;20281;-75
2021/04/17 02:14:04;;;;;;;5.50;3.90;;;;;;;;;;5132514;27;20788;-75
2021/04/17 02:16:34;;;;;;;4.67;4.03;;;;;;;;;;5137959;27;20200;-75
2021/04/17 02:19:03;;;;;;;3.90;3.50;;;;;;;;;;5137684;27;20208;-74
2021/04/17 02:21:32;;;;;;;4.20;3.80;;;;;;;;;;5136096;27;20204;-76
2021/04/17 02:24:00;;;;;;;7.13;4.20;;;;;;;;;;5109870;28;20292;-75
2021/04/17 02:26:27;;;;;;;4.63;3.70;;;;;;;;;;5137736;27;20235;-74
2021/04/17 02:28:55;;;;;;;4.10;3.47;;;;;;;;;;5137785;27;20602;-75
2021/04/17 02:31:23;;;;;;;5.87;3.77;;;;;;;;;;5138189;27;20210;-75
2021/04/17 02:33:51;;;;;;;4.37;3.80;;;;;;;;;;5137730;27;20204;-75
2021/04/17 02:36:19;;;;;;;4.40;4.00;;;;;;;;;;5118675;27;20463;-75
2021/04/17 02:38:46;;;;;;;4.63;3.87;;;;;;;;;;5117034;28;20291;-75
2021/04/17 02:41:13;;;;;;;4.40;4.00;;;;;;;;;;5117147;28;20215;-75
2021/04/17 02:43:40;;;;;;;4.40;4.00;;;;;;;;;;5117098;28;20208;-75
2021/04/17 02:46:07;;;;;;;5.90;3.73;;;;;;;;;;5117150;28;20483;-76
2021/04/17 02:48:34;;;;;;;4.43;3.80;;;;;;;;;;5116667;28;20554;-75
2021/04/17 02:51:02;;;;;;;4.47;4.07;;;;;;;;;;5117546;28;20522;-75
2021/04/17 02:53:30;;;;;;;3.97;3.50;;;;;;;;;;5117637;28;20443;-75
2021/04/17 02:55:57;;;;;;;3.70;3.40;;;;;;;;;;5117275;28;20463;-76
2021/04/17 02:58:24;;;;;;;3.80;3.27;;;;;;;;;;5117221;28;20482;-76
2021/04/17 03:00:51;;;;;;;4.10;3.70;;;;;;;;;;5116013;28;20517;-75
2021/04/17 03:03:18;;;;;;;4.23;3.60;;;;;;;;;;5139221;27;20445;-75
2021/04/17 03:05:45;;;;;;;6.03;4.00;;;;;;;;;;5141728;27;20469;-75
2021/04/17 03:08:13;;;;;;;4.37;3.77;;;;;;;;;;5141825;27;20516;-75
2021/04/17 03:10:41;;;;;;;4.20;3.80;;;;;;;;;;5141781;27;20437;-75
2021/04/17 03:13:08;;;;;;;4.37;3.63;;;;;;;;;;5132581;27;20466;-75
2021/04/17 03:15:36;;;;;;;4.30;3.47;;;;;;;;;;5120932;28;20485;-75
2021/04/17 03:18:03;;;;;;;5.30;3.93;;;;;;;;;;5121094;28;20232;-76
2021/04/17 03:20:31;;;;;;;6.10;3.90;;;;;;;;;;5121089;27;20216;-75
2021/04/17 03:22:58;;;;;;;4.97;3.67;;;;;;;;;;5109601;28;20217;-75
2021/04/17 03:25:25;;;;;;;4.83;4.20;;;;;;;;;;5120658;27;20565;-75
2021/04/17 03:27:54;;;;;;;5.60;3.77;;;;;;;;;;5120893;28;20451;-75
2021/04/17 03:30:26;;;;;;;5.70;3.80;;;;;;;;;;5120948;27;20987;-75
2021/04/17 03:32:55;;;;;;;4.97;3.93;;;;;;;;;;5120702;28;20442;-75
2021/04/17 03:35:22;;;;;;;4.30;3.90;;;;;;;;;;5124611;27;20465;-74
2021/04/17 03:37:49;;;;;;;5.40;4.20;;;;;;;;;;5109425;27;20526;-72
2021/04/17 03:40:16;;;;;;;5.90;4.30;;;;;;;;;;5105318;28;20462;-78
2021/04/17 03:42:43;;;;;;;5.87;4.33;;;;;;;;;;5105924;28;20466;-75
2021/04/17 03:45:12;;;;;;;7.10;3.50;;;;;;;;;;5108479;28;20494;-74
2021/04/17 03:47:39;;;;;;;5.73;4.73;;;;;;;;;;5107633;28;20951;-72
2021/04/17 03:50:08;;;;;;;6.70;3.90;;;;;;;;;;5108214;28;20476;-77
2021/04/17 03:52:35;;;;;;;4.70;4.03;;;;;;;;;;5108300;28;20442;-77
2021/04/17 03:55:03;;;;;;;5.23;4.20;;;;;;;;;;5115744;28;20542;-77
2021/04/17 03:57:30;;;;;;;4.30;3.90;;;;;;;;;;5120577;28;20438;-77
2021/04/17 03:59:57;;;;;;;6.30;4.13;;;;;;;;;;5120334;28;20291;-76
2021/04/17 04:02:25;;;;;;;11.07;4.00;;;;;;;;;;5120624;28;20522;-77
2021/04/17 04:04:52;;;;;;;4.93;4.27;;;;;;;;;;5120153;28;20463;-78
2021/04/17 04:07:19;;;;;;;5.67;4.37;;;;;;;;;;5120231;28;20740;-77
2021/04/17 04:09:46;;;;;;;5.40;4.77;;;;;;;;;;5120099;28;20525;-77
2021/04/17 04:12:13;;;;;;;4.87;4.37;;;;;;;;;;5120457;28;20526;-77
2021/04/17 04:14:40;;;;;;;4.43;4.03;;;;;;;;;;5119966;28;20498;-78
2021/04/17 04:17:07;;;;;;;4.70;4.20;;;;;;;;;;5120394;28;20481;-77
2021/04/17 04:19:35;;;;;;;4.40;4.00;;;;;;;;;;5120001;28;20442;-76
2021/04/17 04:22:02;;;;;;;4.83;3.90;;;;;;;;;;5120124;28;20953;-76
2021/04/17 04:24:29;;;;;;;6.57;4.97;;;;;;;;;;5119906;28;20469;-76
2021/04/17 04:26:56;;;;;;;5.00;4.50;;;;;;;;;;5120157;28;20474;-75
2021/04/17 04:29:23;;;;;;;4.80;4.23;;;;;;;;;;5120257;28;20577;-76
2021/04/17 04:31:50;;;;;;;6.07;4.50;;;;;;;;;;5119864;28;20477;-76
2021/04/17 04:34:18;;;;;;;4.90;4.13;;;;;;;;;;5119320;28;20505;-77
2021/04/17 04:36:46;;;;;;;6.07;3.97;;;;;;;;;;5119858;28;20474;-76
2021/04/17 04:39:13;;;;;;;5.53;4.60;;;;;;;;;;5120016;28;20466;-76
2021/04/17 04:41:40;;;;;;;5.07;4.10;;;;;;;;;;5119504;28;20934;-76
2021/04/17 04:44:07;;;;;;;5.63;3.97;;;;;;;;;;5119651;28;20510;-76
2021/04/17 04:46:34;;;;;;;4.87;3.53;;;;;;;;;;5119775;28;20518;-76
2021/04/17 04:49:01;;;;;;;5.53;4.60;;;;;;;;;;5105853;28;20489;-76
2021/04/17 04:51:28;;;;;;;4.60;4.10;;;;;;;;;;5119689;28;20450;-77
2021/04/17 04:53:59;;;;;;;6.63;3.97;;;;;;;;;;5119561;28;20442;-77
2021/04/17 04:56:26;;;;;;;5.97;4.30;;;;;;;;;;5119416;28;20434;-76
2021/04/17 04:58:53;;;;;;;5.80;4.33;;;;;;;;;;5119600;28;20530;-77
2021/04/17 05:01:20;;;;;;;4.93;3.90;;;;;;;;;;5119409;28;20505;-77
2021/04/17 05:03:47;;;;;;;6.43;4.57;;;;;;;;;;5118973;28;20443;-76
2021/04/17 05:06:14;;;;;;;4.77;4.30;;;;;;;;;;5119027;28;20546;-76
2021/04/17 05:08:41;;;;;;;5.17;4.70;;;;;;;;;;5119315;28;20535;-76
2021/04/17 05:11:09;;;;;;;7.60;4.43;;;;;;;;;;5119231;28;20445;-76
2021/04/17 05:13:36;;;;;;;5.17;4.07;;;;;;;;;;5119389;28;20936;-76
2021/04/17 05:16:03;;;;;;;5.30;4.17;;;;;;;;;;5118798;28;20541;-76
2021/04/17 05:18:30;;;;;;;4.23;3.83;;;;;;;;;;5118898;28;20439;-76
2021/04/17 05:20:58;;;;;;;4.73;4.23;;;;;;;;;;5118948;28;20461;-77
2021/04/17 05:23:25;;;;;;;5.20;4.00;;;;;;;;;;5119312;28;20870;-77
2021/04/17 05:25:52;;;;;;;4.73;3.77;;;;;;;;;;5118000;28;20557;-76
2021/04/17 05:28:20;;;;;;;4.60;4.00;;;;;;;;;;5118580;28;20530;-77
2021/04/17 05:30:47;;;;;;;4.93;4.43;;;;;;;;;;5118629;28;20801;-76
2021/04/17 05:33:14;;;;;;;4.30;3.90;;;;;;;;;;5118543;28;20513;-76
2021/04/17 05:35:41;;;;;;;7.00;4.20;;;;;;;;;;5118447;28;20824;-77
2021/04/17 05:38:08;;;;;;;4.93;4.20;;;;;;;;;;5118876;28;20470;-77
2021/04/17 05:40:35;;;;;;;5.50;4.47;;;;;;;;;;5118710;28;20474;-77
2021/04/17 05:43:02;;;;;;;6.17;4.40;;;;;;;;;;5118564;28;20806;-77
2021/04/17 05:45:30;;;;;;;6.87;4.57;;;;;;;;;;5118149;28;20558;-76
2021/04/17 05:47:57;;;;;;;4.00;3.60;;;;;;;;;;5118407;28;20443;-77
2021/04/17 05:50:24;;;;;;;5.47;4.63;;;;;;;;;;5118419;28;20482;-76
2021/04/17 05:52:55;;;;;;;5.70;4.77;;;;;;;;;;5118629;28;20439;-77
2021/04/17 05:55:22;;;;;;;5.30;4.50;;;;;;;;;;5118233;28;20509;-76
2021/04/17 05:57:49;;;;;;;5.03;4.10;;;;;;;;;;5118505;28;20499;-76
2021/04/17 06:00:16;;;;;;;5.77;4.40;;;;;;;;;;5118349;28;20564;-76
2021/04/17 06:02:44;;;;;;;6.20;4.30;;;;;;;;;;5118277;28;20470;-76
2021/04/17 06:05:12;;;;;;;7.93;4.63;;;;;;;;;;5118149;28;20462;-76
2021/04/17 06:07:39;;;;;;;6.63;4.70;;;;;;;;;;5118319;27;20486;-78
2021/04/17 06:10:07;;;;;;;5.63;4.87;;;;;;;;;;5118176;28;20575;-76
2021/04/17 06:12:34;;;;;;;5.47;4.90;;;;;;;;;;5118377;28;20477;-76
2021/04/17 06:15:01;;;;;;;7.00;4.77;;;;;;;;;;5118376;28;20467;-76
2021/04/17 06:17:28;;;;;;;6.93;4.70;;;;;;;;;;5118199;28;20510;-77
2021/04/17 06:19:56;;;;;;;4.80;4.33;;;;;;;;;;5118168;28;20439;-77
2021/04/17 06:22:23;;;;;;;10.80;7.97;;;;;;;;;;5117980;28;20443;-73
2021/04/17 06:24:50;;;;;;;22.73;13.50;;;;;;;;;;5117769;28;20843;-73
2021/04/17 06:27:17;;;;;;;6.30;5.67;;;;;;;;;;5117679;28;20474;-73
2021/04/17 06:29:44;;;;;;;12.80;8.33;;;;;;;;;;5117944;28;20616;-72
2021/04/17 06:32:11;;;;;;;16.67;9.60;;;;;;;;;;5117651;28;20439;-72
2021/04/17 06:34:38;;;;;;;11.77;9.13;;;;;;;;;;5116474;28;20473;-73
2021/04/17 06:37:06;;;;;;;8.10;6.00;;;;;;;;;;5106605;28;20997;-74
2021/04/17 06:39:33;;;;;;;9.33;6.80;;;;;;;;;;5109117;28;20456;-73
2021/04/17 06:42:03;;;;;;;7.27;5.90;;;;;;;;;;5107198;27;20863;-73
2021/04/17 06:44:31;;;;;;;7.83;5.40;;;;;;;;;;5110057;28;20507;-74
2021/04/17 06:46:59;;;;;;;10.13;7.10;;;;;;;;;;5114587;27;20468;-74
2021/04/17 06:49:27;;;;;;;7.67;5.43;;;;;;;;;;5110505;28;20531;-74
2021/04/17 06:51:55;;;;;;;9.83;6.00;;;;;;;;;;5109292;28;20462;-75
2021/04/17 06:54:25;;;;;;;5.90;4.47;;;;;;;;;;5109143;28;20463;-75
2021/04/17 06:56:52;;;;;;;7.47;5.20;;;;;;;;;;5107724;28;20525;-75
2021/04/17 06:59:20;;;;;;;5.67;4.43;;;;;;;;;;5110264;28;20427;-75
2021/04/17 07:01:47;;;;;;;5.30;4.80;;;;;;;;;;5109367;28;20482;-75
2021/04/17 07:04:14;;;;;;;4.63;4.20;;;;;;;;;;5108939;28;20445;-74
2021/04/17 07:06:42;;;;;;;5.30;4.80;;;;;;;;;;5109203;27;20455;-75
2021/04/17 07:09:09;;;;;;;6.30;4.70;;;;;;;;;;5110026;28;20571;-74
2021/04/17 07:11:37;;;;;;;6.77;5.00;;;;;;;;;;5106053;28;20457;-75
2021/04/17 07:14:05;;;;;;;5.07;4.20;;;;;;;;;;5108015;28;20458;-75
2021/04/17 07:16:33;;;;;;;6.27;4.77;;;;;;;;;;5112487;28;20982;-74
2021/04/17 07:19:00;;;;;;;5.03;4.57;;;;;;;;;;5106807;28;20458;-74
2021/04/17 07:21:29;;;;;;;7.97;4.73;;;;;;;;;;5118510;28;20470;-75
2021/04/17 07:23:56;;;;;;;7.17;4.77;;;;;;;;;;5108908;28;20446;-74
2021/04/17 07:26:24;;;;;;;5.97;4.70;;;;;;;;;;5108493;28;20505;-74
2021/04/17 07:29:03;;;;;;;6.23;5.10;;;;;;;;;;5109426;28;20566;-74
2021/04/17 07:31:31;;;;;;;8.87;5.23;;;;;;;;;;5116108;27;20477;-73
2021/04/17 07:34:11;;;;;;;5.57;5.07;;;;;;;;;;5120597;27;20922;-72
2021/04/17 07:36:52;;;;;;;5.53;4.97;;;;;;;;;;5117820;28;20517;-71
2021/04/17 07:39:43;;;;;;;5.50;4.60;;;;;;;;;;5121213;28;20469;-73
2021/04/17 07:42:11;;;;;;;5.93;4.70;;;;;;;;;;5121140;28;20201;-72
2021/04/17 07:44:41;;;;;;;5.93;5.37;;;;;;;;;;5120506;28;20280;-72
2021/04/17 07:47:08;;;;;;;6.20;4.83;;;;;;;;;;5117493;28;20254;-71
2021/04/17 07:49:37;;;;;;;6.17;5.37;;;;;;;;;;5119327;28;20220;-72
2021/04/17 07:52:08;;;;;;;7.50;4.90;;;;;;;;;;5120735;28;20205;-72
2021/04/17 07:54:35;;;;;;;8.30;5.37;;;;;;;;;;5120289;28;20295;-73
2021/04/17 07:57:03;;;;;;;6.43;5.10;;;;;;;;;;5120401;28;20291;-74
2021/04/17 07:59:31;;;;;;;5.57;4.93;;;;;;;;;;5100554;28;20604;-73
2021/04/17 08:01:59;;;;;;;5.53;5.03;;;;;;;;;;5103108;28;20293;-72
2021/04/17 08:04:27;;;;;;;5.17;4.77;;;;;;;;;;5106532;27;20256;-72
2021/04/17 08:06:56;;;;;;;6.10;5.50;;;;;;;;;;5120662;28;20201;-72
2021/04/17 08:09:24;;;;;;;5.97;5.37;;;;;;;;;;5125894;27;20592;-72
2021/04/17 08:11:52;;;;;;;6.93;5.13;;;;;;;;;;5108059;28;20644;-72
2021/04/17 08:14:20;;;;;;;9.40;5.17;;;;;;;;;;5120322;28;20229;-72
2021/04/17 08:16:47;;;;;;;8.13;5.27;;;;;;;;;;5120440;28;20235;-72
2021/04/17 08:19:15;;;;;;;6.00;5.03;;;;;;;;;;5120332;27;20244;-72
2021/04/17 08:21:42;;;;;;;8.57;5.40;;;;;;;;;;5124040;27;20229;-72
2021/04/17 08:24:09;;;;;;;6.17;5.57;;;;;;;;;;5119914;28;20743;-72
2021/04/17 08:26:36;;;;;;;7.27;5.53;;;;;;;;;;5119732;28;20268;-72
2021/04/17 08:29:04;;;;;;;8.10;5.17;;;;;;;;;;5119854;28;20229;-72
2021/04/17 08:31:32;;;;;;;9.90;5.30;;;;;;;;;;5120129;27;20287;-72
2021/04/17 08:34:13;;;;;;;9.40;5.40;;;;;;;;;;5119666;28;20215;-72
2021/04/17 08:36:42;;;;;;;6.10;5.27;;;;;;;;;;5112282;28;20660;-72
2021/04/17 08:39:24;;;;;;;6.80;5.40;;;;;;;;;;5109537;28;20265;-72
2021/04/17 08:41:51;;;;;;;7.37;5.80;;;;;;;;;;5119382;28;20735;-72
2021/04/17 08:44:25;;;;;;;7.03;5.70;;;;;;;;;;5119426;28;20307;-71
2021/04/17 08:46:53;;;;;;;6.37;5.70;;;;;;;;;;5119657;28;20204;-72
2021/04/17 08:49:23;;;;;;;6.57;5.87;;;;;;;;;;5117565;28;20212;-72
2021/04/17 08:51:51;;;;;;;7.70;5.93;;;;;;;;;;5109248;28;20220;-73
2021/04/17 08:54:23;;;;;;;6.27;5.60;;;;;;;;;;5106906;28;20313;-73
2021/04/17 08:56:52;;;;;;;6.77;5.83;;;;;;;;;;5132668;27;20207;-73
2021/04/17 08:59:20;;;;;;;6.87;5.63;;;;;;;;;;5140012;27;20210;-73
2021/04/17 09:01:47;;;;;;;6.97;5.97;;;;;;;;;;5132701;27;20228;-72
2021/04/17 09:04:15;;;;;;;7.30;5.70;;;;;;;;;;5131738;27;20204;-73
2021/04/17 09:06:43;;;;;;;6.47;5.50;;;;;;;;;;5139524;27;20667;-73
2021/04/17 09:09:27;;;;;;;7.13;5.60;;;;;;;;;;5114749;27;20311;-73
2021/04/17 09:11:55;;;;;;;8.93;5.97;;;;;;;;;;5121976;27;20239;-73
2021/04/17 09:14:40;;;;;;;6.90;6.27;;;;;;;;;;5126690;27;20269;-72
2021/04/17 09:17:08;;;;;;;7.87;6.50;;;;;;;;;;5139895;27;20207;-72
2021/04/17 09:19:51;;;;;;;9.80;6.53;;;;;;;;;;5139600;27;20200;-72
2021/04/17 09:22:42;;;;;;;11.00;7.30;;;;;;;;;;5139991;27;20283;-71
2021/04/17 09:25:11;;;;;;;7.23;6.20;;;;;;;;;;5139243;27;20675;-72
2021/04/17 09:27:38;;;;;;;8.50;6.90;;;;;;;;;;5108578;28;20736;-71
2021/04/17 09:30:07;;;;;;;7.60;6.53;;;;;;;;;;5106152;28;20224;-72
2021/04/17 09:32:38;;;;;;;8.77;6.57;;;;;;;;;;5118046;28;20197;-72
2021/04/17 09:35:12;;;;;;;7.70;6.90;;;;;;;;;;5118714;28;20217;-72
2021/04/17 09:37:39;;;;;;;9.63;7.20;;;;;;;;;;5130800;27;20200;-72
2021/04/17 09:40:07;;;;;;;9.57;7.13;;;;;;;;;;5139363;27;20204;-72
2021/04/17 09:42:36;;;;;;;7.67;6.80;;;;;;;;;;5131978;27;20713;-72
2021/04/17 09:45:04;;;;;;;9.07;7.73;;;;;;;;;;5133316;27;20266;-72
2021/04/17 09:47:32;;;;;;;10.43;7.60;;;;;;;;;;5113655;27;20197;-72
2021/04/17 09:49:59;;;;;;;8.37;6.27;;;;;;;;;;5130148;27;20266;-72
2021/04/17 09:52:27;;;;;;;10.83;7.40;;;;;;;;;;5130900;27;20204;-72
2021/04/17 09:54:57;;;;;;;7.87;6.57;;;;;;;;;;5109676;28;20229;-73
2021/04/17 09:57:24;;;;;;;9.40;7.63;;;;;;;;;;5138020;27;20239;-73
2021/04/17 09:59:53;;;;;;;8.17;6.50;;;;;;;;;;5139114;27;20552;-72
2021/04/17 10:02:20;;;;;;;17.90;11.47;;;;;;;;;;5136054;27;20562;-73
2021/04/17 10:04:48;;;;;;;9.43;7.40;;;;;;;;;;5104475;28;20225;-77
2021/04/17 10:07:15;;;;;;;9.97;6.77;;;;;;;;;;5104135;28;20284;-73
2021/04/17 10:09:43;;;;;;;9.70;7.60;;;;;;;;;;5106873;28;20213;-74
2021/04/17 10:12:13;;;;;;;8.17;7.13;;;;;;;;;;5105123;28;20201;-72
2021/04/17 10:14:40;;;;;;;11.07;7.43;;;;;;;;;;5131372;27;20259;-73
2021/04/17 10:17:08;;;;;;;8.57;6.57;;;;;;;;;;5105946;28;20229;-71
2021/04/17 10:19:36;;;;;;;10.20;7.63;;;;;;;;;;5103349;28;20564;-70
2021/04/17 10:22:03;;;;;;;10.80;7.40;;;;;;;;;;5103311;28;20237;-70
2021/04/17 10:24:31;;;;;;;9.67;7.17;;;;;;;;;;5105975;28;20312;-72
2021/04/17 10:27:01;;;;;;;8.93;7.30;;;;;;;;;;5110321;28;20717;-74
2021/04/17 10:29:36;;;;;;;9.03;6.87;;;;;;;;;;5111325;28;20306;-72
2021/04/17 10:32:04;;;;;;;11.50;8.50;;;;;;;;;;5121383;28;20667;-72
2021/04/17 10:34:32;;;;;;;9.80;7.27;;;;;;;;;;5134583;27;20220;-72
2021/04/17 10:37:01;;;;;;;11.30;9.13;;;;;;;;;;5115309;28;20201;-72
2021/04/17 10:39:28;;;;;;;9.30;7.57;;;;;;;;;;5118159;28;20204;-73
2021/04/17 10:42:00;;;;;;;11.27;8.03;;;;;;;;;;5117909;28;20688;-73
2021/04/17 10:44:27;;;;;;;8.60;6.87;;;;;;;;;;5117893;28;20565;-73
2021/04/17 10:46:55;;;;;;;8.47;7.63;;;;;;;;;;5122825;28;20725;-74
2021/04/17 10:49:27;;;;;;;9.87;7.63;;;;;;;;;;5116392;28;20247;-73
2021/04/17 10:51:55;;;;;;;8.30;7.10;;;;;;;;;;5118170;28;20264;-74
2021/04/17 10:54:22;;;;;;;9.57;7.80;;;;;;;;;;5108230;28;20225;-74
2021/04/17 10:56:57;;;;;;;8.30;7.03;;;;;;;;;;5125362;28;20214;-73
2021/04/17 10:59:24;;;;;;;10.47;7.10;;;;;;;;;;5138477;27;20199;-74
2021/04/17 11:01:51;;;;;;;7.50;6.77;;;;;;;;;;5138724;27;20296;-73
2021/04/17 11:04:18;;;;;;;10.33;7.40;;;;;;;;;;5125466;27;20221;-71
2021/04/17 11:06:47;;;;;;;10.17;7.50;;;;;;;;;;5103976;28;20672;-74
2021/04/17 11:09:16;;;;;;;10.07;7.70;;;;;;;;;;5113219;28;20332;-73
2021/04/17 11:11:52;;;;;;;9.80;8.23;;;;;;;;;;5113567;28;20233;-74
2021/04/17 11:14:20;;;;;;;13.40;8.10;;;;;;;;;;5117031;28;20271;-74
2021/04/17 11:16:50;;;;;;;10.30;8.00;;;;;;;;;;5117900;28;20201;-74
2021/04/17 11:19:24;;;;;;;11.30;9.30;;;;;;;;;;5105594;28;20616;-75
2021/04/17 11:22:15;;;;;;;10.77;7.90;;;;;;;;;;5102952;28;20694;-74
2021/04/17 11:24:43;;;;;;;17.30;11.07;;;;;;;;;;5085997;28;20604;-74
2021/04/17 11:27:10;;;;;;;8.30;7.47;;;;;;;;;;5107262;28;20649;-74
2021/04/17 11:29:39;;;;;;;9.90;7.27;;;;;;;;;;5104649;28;20253;-74
2021/04/17 11:32:06;;;;;;;11.60;7.73;;;;;;;;;;5108527;28;20200;-74
2021/04/17 11:34:33;;;;;;;9.33;8.00;;;;;;;;;;5114452;28;20231;-72
2021/04/17 11:37:00;;;;;;;9.03;7.87;;;;;;;;;;5134041;27;20204;-73
2021/04/17 11:39:27;;;;;;;10.17;7.50;;;;;;;;;;5141993;27;20200;-73
2021/04/17 11:41:55;;;;;;;8.50;7.00;;;;;;;;;;5120907;27;20237;-73
2021/04/17 11:44:22;;;;;;;8.80;7.27;;;;;;;;;;5117881;27;20696;-72
2021/04/17 11:46:49;;;;;;;8.70;7.80;;;;;;;;;;5120436;28;20207;-73
2021/04/17 11:49:17;;;;;;;9.33;7.37;;;;;;;;;;5120637;28;20552;-74
2021/04/17 11:51:44;;;;;;;8.43;7.63;;;;;;;;;;5120953;28;20232;-74
2021/04/17 11:54:11;;;;;;;9.30;7.73;;;;;;;;;;5106659;28;20285;-72
2021/04/17 11:56:38;;;;;;;8.50;6.97;;;;;;;;;;5121819;27;20283;-73
2021/04/17 11:59:06;;;;;;;9.23;7.57;;;;;;;;;;5120188;27;20326;-74
2021/04/17 12:01:33;;;;;;;9.67;7.87;;;;;;;;;;5110423;28;20261;-75
2021/04/17 12:04:00;;;;;;;10.33;6.73;;;;;;;;;;5107909;28;20536;-72
2021/04/17 12:06:29;;;;;;;8.77;7.53;;;;;;;;;;5118778;28;20247;-73
2021/04/17 12:08:59;;;;;;;9.40;7.27;;;;;;;;;;5120901;28;20212;-72
2021/04/17 12:11:26;;;;;;;10.70;7.20;;;;;;;;;;5120400;28;20611;-72
2021/04/17 12:13:53;;;;;;;10.10;7.33;;;;;;;;;;5120448;28;20211;-72
2021/04/17 12:16:22;;;;;;;8.53;7.00;;;;;;;;;;5120607;28;20308;-72
2021/04/17 12:18:49;;;;;;;9.37;7.80;;;;;;;;;;5114686;28;20608;-73
2021/04/17 12:21:16;;;;;;;12.77;7.37;;;;;;;;;;5120369;28;20297;-73
2021/04/17 12:23:43;;;;;;;10.83;7.67;;;;;;;;;;5120552;28;20288;-73
2021/04/17 12:26:10;;;;;;;8.63;7.27;;;;;;;;;;5116760;28;20268;-73
2021/04/17 12:28:37;;;;;;;9.13;7.40;;;;;;;;;;5109045;28;20215;-73
2021/04/17 12:31:05;;;;;;;9.33;7.33;;;;;;;;;;5105169;28;20580;-72
2021/04/17 12:33:33;;;;;;;9.43;6.77;;;;;;;;;;5106557;28;20201;-74
2021/04/17 12:36:01;;;;;;;10.23;7.40;;;;;;;;;;5107348;28;20307;-74
2021/04/17 12:38:28;;;;;;;10.80;7.57;;;;;;;;;;5109444;28;20229;-74
2021/04/17 12:40:55;;;;;;;8.47;7.00;;;;;;;;;;5126117;27;20198;-73
2021/04/17 12:43:22;;;;;;;6.90;6.20;;;;;;;;;;5140356;27;20235;-73
2021/04/17 12:45:50;;;;;;;9.83;6.90;;;;;;;;;;5125571;27;20232;-73
2021/04/17 12:48:17;;;;;;;9.30;7.13;;;;;;;;;;5119620;28;20275;-73
2021/04/17 12:50:46;;;;;;;9.03;6.67;;;;;;;;;;5116706;28;20274;-73
2021/04/17 12:53:13;;;;;;;7.43;6.60;;;;;;;;;;5106331;28;20202;-73
2021/04/17 12:55:40;;;;;;;12.00;6.90;;;;;;;;;;5107062;28;20263;-73
2021/04/17 12:58:07;;;;;;;7.80;7.00;;;;;;;;;;5109435;27;20737;-73
2021/04/17 13:00:34;;;;;;;8.20;7.30;;;;;;;;;;5110028;28;20287;-72
2021/04/17 13:03:01;;;;;;;9.93;6.60;;;;;;;;;;5115537;27;20284;-75
2021/04/17 13:05:28;;;;;;;9.47;7.30;;;;;;;;;;5127277;27;20227;-73
2021/04/17 13:07:56;;;;;;;8.80;7.00;;;;;;;;;;5139689;27;20200;-74
2021/04/17 13:10:23;;;;;;;7.90;6.87;;;;;;;;;;5113702;27;20309;-75
2021/04/17 13:12:50;;;;;;;12.87;7.10;;;;;;;;;;5118232;28;20239;-74
2021/04/17 13:15:17;;;;;;;7.70;6.30;;;;;;;;;;5118990;28;20316;-73
2021/04/17 13:17:44;;;;;;;9.30;7.40;;;;;;;;;;5118805;28;20648;-74
2021/04/17 13:20:12;;;;;;;9.33;7.70;;;;;;;;;;5119152;28;20208;-73
2021/04/17 13:22:39;;;;;;;9.10;7.17;;;;;;;;;;5135549;27;20203;-73
2021/04/17 13:25:07;;;;;;;8.43;7.10;;;;;;;;;;5139452;27;20790;-75
2021/04/17 13:27:34;;;;;;;8.87;6.53;;;;;;;;;;5122167;27;20204;-75
2021/04/17 13:30:01;;;;;;;9.23;7.27;;;;;;;;;;5118805;28;20347;-74
2021/04/17 13:32:28;;;;;;;8.20;6.40;;;;;;;;;;5119061;28;20242;-75
2021/04/17 13:34:56;;;;;;;6.93;6.23;;;;;;;;;;5118637;28;20700;-75
2021/04/17 13:37:25;;;;;;;7.70;6.83;;;;;;;;;;5118890;28;20243;-75
2021/04/17 13:39:53;;;;;;;10.37;7.13;;;;;;;;;;5119043;28;20197;-76
2021/04/17 13:42:21;;;;;;;9.07;7.23;;;;;;;;;;5118978;28;20291;-75
2021/04/17 13:44:48;;;;;;;7.83;6.60;;;;;;;;;;5106684;28;20236;-76
2021/04/17 13:47:15;;;;;;;12.70;6.90;;;;;;;;;;5118034;28;20201;-75
2021/04/17 13:49:43;;;;;;;6.73;5.90;;;;;;;;;;5120060;27;20197;-72
2021/04/17 13:52:10;;;;;;;8.27;6.37;;;;;;;;;;5119790;28;20193;-75
2021/04/17 13:54:40;;;;;;;8.50;6.87;;;;;;;;;;5117816;27;20296;-75
2021/04/17 13:57:08;;;;;;;8.40;7.07;;;;;;;;;;5113854;28;20558;-75
2021/04/17 13:59:36;;;;;;;7.50;6.70;;;;;;;;;;5117538;28;20205;-75
2021/04/17 14:02:03;;;;;;;6.97;5.77;;;;;;;;;;5109047;28;20642;-75
2021/04/17 14:04:30;;;;;;;9.27;6.20;;;;;;;;;;5116422;28;20221;-75
2021/04/17 14:06:58;;;;;;;8.33;6.30;;;;;;;;;;5116523;28;20677;-75
2021/04/17 14:09:25;;;;;;;7.73;5.97;;;;;;;;;;5116481;28;20233;-75
2021/04/17 14:11:52;;;;;;;8.77;6.50;;;;;;;;;;5116611;28;20258;-75
2021/04/17 14:14:19;;;;;;;9.83;7.07;;;;;;;;;;5117019;28;20232;-75
2021/04/17 14:16:47;;;;;;;7.00;5.87;;;;;;;;;;5117170;28;20235;-75
2021/04/17 14:19:16;;;;;;;8.90;6.40;;;;;;;;;;5115909;28;20209;-75
2021/04/17 14:21:44;;;;;;;7.10;5.63;;;;;;;;;;5116795;28;20653;-75
2021/04/17 14:24:11;;;;;;;5.60;4.83;;;;;;;;;;5119354;27;20233;-75
2021/04/17 14:26:38;;;;;;;5.83;4.87;;;;;;;;;;5117334;28;20311;-75
2021/04/17 14:29:05;;;;;;;8.07;5.43;;;;;;;;;;5118976;28;20678;-74
2021/04/17 14:31:32;;;;;;;6.37;5.53;;;;;;;;;;5108968;28;20311;-74
2021/04/17 14:34:01;;;;;;;6.73;5.63;;;;;;;;;;5117068;28;20211;-74
2021/04/17 14:36:28;;;;;;;8.13;5.80;;;;;;;;;;5110670;28;20286;-74
2021/04/17 14:38:55;;;;;;;6.63;5.40;;;;;;;;;;5115920;28;20262;-74
2021/04/17 14:41:22;;;;;;;9.00;6.27;;;;;;;;;;5117964;28;20296;-74
2021/04/17 14:43:50;;;;;;;8.07;5.20;;;;;;;;;;5117193;28;20205;-74
2021/04/17 14:46:17;;;;;;;6.37;5.23;;;;;;;;;;5116958;28;20229;-75